sensor_id;sensor_type;location;lat;lon;timestamp;P1;durP1;ratioP1;P2;durP2;ratioP2
37379;SDS011;23252;-33.992;18.480;2023-07-29T00:01:36;13.50;;;2.28;;
37379;SDS011;23252;-33.992;18.480;2023-07-29T00:04:05;7.85;;;1.45;;
37379;SDS011;23252;-33.992;18.480;2023-07-29T00:06:31;10.35;;;1.75;;
37379;SDS011;23252;-33.992;18.480;2023-07-29T00:08:58;7.75;;;1.30;;
37379;SDS011;23252;-33.992;18.480;2023-07-29T00:11:24;9.85;;;1.70;;
37379;SDS011;23252;-33.992;18.480;2023-07-29T00:13:51;7.10;;;1.70;;
37379;SDS011;23252;-33.992;18.480;2023-07-29T00:16:18;13.68;;;1.60;;
37379;SDS011;23252;-33.992;18.480;2023-07-29T00:18:47;8.27;;;1.65;;
37379;SDS011;23252;-33.992;18.480;2023-07-29T00:21:14;4.47;;;1.10;;
37379;SDS011;23252;-33.992;18.480;2023-07-29T00:23:41;8.52;;;1.58;;
37379;SDS011;23252;-33.992;18.480;2023-07-29T00:26:07;4.90;;;1.08;;
37379;SDS011;23252;-33.992;18.480;2023-07-29T00:28:34;5.05;;;1.05;;
37379;SDS011;23252;-33.992;18.480;2023-07-29T00:31:01;5.60;;;1.00;;
37379;SDS011;23252;-33.992;18.480;2023-07-29T00:33:27;5.88;;;0.75;;
37379;SDS011;23252;-33.992;18.480;2023-07-29T00:35:54;4.45;;;1.17;;
37379;SDS011;23252;-33.992;18.480;2023-07-29T00:38:20;6.93;;;1.15;;
37379;SDS011;23252;-33.992;18.480;2023-07-29T00:40:47;5.60;;;1.00;;
37379;SDS011;23252;-33.992;18.480;2023-07-29T00:43:14;11.43;;;1.95;;
37379;SDS011;23252;-33.992;18.480;2023-07-29T00:45:40;9.88;;;1.50;;
37379;SDS011;23252;-33.992;18.480;2023-07-29T00:48:10;9.75;;;1.70;;
37379;SDS011;23252;-33.992;18.480;2023-07-29T00:50:36;7.30;;;1.63;;
37379;SDS011;23252;-33.992;18.480;2023-07-29T00:53:03;6.03;;;1.90;;
37379;SDS011;23252;-33.992;18.480;2023-07-29T00:55:30;10.10;;;1.60;;
37379;SDS011;23252;-33.992;18.480;2023-07-29T00:57:56;7.40;;;1.33;;
37379;SDS011;23252;-33.992;18.480;2023-07-29T01:00:23;6.50;;;1.20;;
37379;SDS011;23252;-33.992;18.480;2023-07-29T01:02:50;7.40;;;1.20;;
37379;SDS011;23252;-33.992;18.480;2023-07-29T01:05:19;5.70;;;1.15;;
37379;SDS011;23252;-33.992;18.480;2023-07-29T01:16:38;9.13;;;1.13;;
37379;SDS011;23252;-33.992;18.480;2023-07-29T01:18:47;11.75;;;1.88;;
37379;SDS011;23252;-33.992;18.480;2023-07-29T01:21:14;7.93;;;1.42;;
37379;SDS011;23252;-33.992;18.480;2023-07-29T01:23:42;8.82;;;1.48;;
37379;SDS011;23252;-33.992;18.480;2023-07-29T01:26:09;21.13;;;2.50;;
37379;SDS011;23252;-33.992;18.480;2023-07-29T01:28:36;15.23;;;2.45;;
37379;SDS011;23252;-33.992;18.480;2023-07-29T01:31:23;17.85;;;2.67;;
37379;SDS011;23252;-33.992;18.480;2023-07-29T01:34:10;19.17;;;2.72;;
37379;SDS011;23252;-33.992;18.480;2023-07-29T01:36:47;24.67;;;3.03;;
37379;SDS011;23252;-33.992;18.480;2023-07-29T01:39:16;22.17;;;3.03;;
37379;SDS011;23252;-33.992;18.480;2023-07-29T01:41:44;23.10;;;3.92;;
37379;SDS011;23252;-33.992;18.480;2023-07-29T01:44:11;29.42;;;3.78;;
37379;SDS011;23252;-33.992;18.480;2023-07-29T01:49:05;23.38;;;2.72;;
37379;SDS011;23252;-33.992;18.480;2023-07-29T01:51:31;19.58;;;2.83;;
37379;SDS011;23252;-33.992;18.480;2023-07-29T01:53:58;16.73;;;2.10;;
37379;SDS011;23252;-33.992;18.480;2023-07-29T01:56:25;17.42;;;3.05;;
37379;SDS011;23252;-33.992;18.480;2023-07-29T01:58:51;23.75;;;2.58;;
37379;SDS011;23252;-33.992;18.480;2023-07-29T02:01:18;21.63;;;2.95;;
37379;SDS011;23252;-33.992;18.480;2023-07-29T02:03:44;24.48;;;3.63;;
37379;SDS011;23252;-33.992;18.480;2023-07-29T02:06:11;18.83;;;4.03;;
37379;SDS011;23252;-33.992;18.480;2023-07-29T02:08:37;23.80;;;3.27;;
37379;SDS011;23252;-33.992;18.480;2023-07-29T02:11:06;28.75;;;4.25;;
37379;SDS011;23252;-33.992;18.480;2023-07-29T02:13:32;25.15;;;3.58;;
37379;SDS011;23252;-33.992;18.480;2023-07-29T02:15:59;16.08;;;2.70;;
37379;SDS011;23252;-33.992;18.480;2023-07-29T02:18:25;16.10;;;1.80;;
37379;SDS011;23252;-33.992;18.480;2023-07-29T02:20:52;9.52;;;1.67;;
37379;SDS011;23252;-33.992;18.480;2023-07-29T02:23:19;13.13;;;1.65;;
37379;SDS011;23252;-33.992;18.480;2023-07-29T02:25:45;9.93;;;1.63;;
37379;SDS011;23252;-33.992;18.480;2023-07-29T02:28:12;5.95;;;1.30;;
37379;SDS011;23252;-33.992;18.480;2023-07-29T02:30:41;8.55;;;1.30;;
37379;SDS011;23252;-33.992;18.480;2023-07-29T02:33:10;6.82;;;1.10;;
37379;SDS011;23252;-33.992;18.480;2023-07-29T02:35:37;7.85;;;1.63;;
37379;SDS011;23252;-33.992;18.480;2023-07-29T02:38:03;7.07;;;1.10;;
37379;SDS011;23252;-33.992;18.480;2023-07-29T02:40:30;11.88;;;1.20;;
37379;SDS011;23252;-33.992;18.480;2023-07-29T02:42:57;8.25;;;1.20;;
37379;SDS011;23252;-33.992;18.480;2023-07-29T02:45:23;8.57;;;1.40;;
37379;SDS011;23252;-33.992;18.480;2023-07-29T02:47:50;8.45;;;1.30;;
37379;SDS011;23252;-33.992;18.480;2023-07-29T02:50:16;7.30;;;1.55;;
37379;SDS011;23252;-33.992;18.480;2023-07-29T02:52:43;10.27;;;1.25;;
37379;SDS011;23252;-33.992;18.480;2023-07-29T02:55:09;6.85;;;1.42;;
37379;SDS011;23252;-33.992;18.480;2023-07-29T02:57:35;7.72;;;1.23;;
37379;SDS011;23252;-33.992;18.480;2023-07-29T03:00:02;5.93;;;1.00;;
37379;SDS011;23252;-33.992;18.480;2023-07-29T03:02:29;6.68;;;1.08;;
37379;SDS011;23252;-33.992;18.480;2023-07-29T03:04:55;6.43;;;1.08;;
37379;SDS011;23252;-33.992;18.480;2023-07-29T03:07:22;12.05;;;1.63;;
37379;SDS011;23252;-33.992;18.480;2023-07-29T03:09:48;5.15;;;1.00;;
37379;SDS011;23252;-33.992;18.480;2023-07-29T03:12:15;11.05;;;1.23;;
37379;SDS011;23252;-33.992;18.480;2023-07-29T03:14:41;12.60;;;1.10;;
37379;SDS011;23252;-33.992;18.480;2023-07-29T03:17:08;12.07;;;1.38;;
37379;SDS011;23252;-33.992;18.480;2023-07-29T03:19:34;9.68;;;1.27;;
37379;SDS011;23252;-33.992;18.480;2023-07-29T03:22:01;11.75;;;1.90;;
37379;SDS011;23252;-33.992;18.480;2023-07-29T03:24:27;12.45;;;2.08;;
37379;SDS011;23252;-33.992;18.480;2023-07-29T03:26:54;13.40;;;2.38;;
37379;SDS011;23252;-33.992;18.480;2023-07-29T03:29:20;13.33;;;2.00;;
37379;SDS011;23252;-33.992;18.480;2023-07-29T03:31:47;17.98;;;2.42;;
37379;SDS011;23252;-33.992;18.480;2023-07-29T03:34:13;21.20;;;3.30;;
37379;SDS011;23252;-33.992;18.480;2023-07-29T03:36:40;21.60;;;2.95;;
37379;SDS011;23252;-33.992;18.480;2023-07-29T03:39:06;19.50;;;3.67;;
37379;SDS011;23252;-33.992;18.480;2023-07-29T03:41:33;14.48;;;2.25;;
37379;SDS011;23252;-33.992;18.480;2023-07-29T03:43:59;18.20;;;2.60;;
37379;SDS011;23252;-33.992;18.480;2023-07-29T03:46:26;18.75;;;2.97;;
37379;SDS011;23252;-33.992;18.480;2023-07-29T03:48:52;19.10;;;3.03;;
37379;SDS011;23252;-33.992;18.480;2023-07-29T03:51:19;18.58;;;2.70;;
37379;SDS011;23252;-33.992;18.480;2023-07-29T03:53:47;14.02;;;1.95;;
37379;SDS011;23252;-33.992;18.480;2023-07-29T03:56:13;25.50;;;3.35;;
37379;SDS011;23252;-33.992;18.480;2023-07-29T03:58:39;24.40;;;3.50;;
37379;SDS011;23252;-33.992;18.480;2023-07-29T04:01:06;28.80;;;3.03;;
37379;SDS011;23252;-33.992;18.480;2023-07-29T04:03:33;25.08;;;3.38;;
37379;SDS011;23252;-33.992;18.480;2023-07-29T04:06:00;31.77;;;3.92;;
37379;SDS011;23252;-33.992;18.480;2023-07-29T04:08:26;25.20;;;2.60;;
37379;SDS011;23252;-33.992;18.480;2023-07-29T04:10:53;15.93;;;2.88;;
37379;SDS011;23252;-33.992;18.480;2023-07-29T04:13:19;22.40;;;2.80;;
37379;SDS011;23252;-33.992;18.480;2023-07-29T04:15:46;18.40;;;2.58;;
37379;SDS011;23252;-33.992;18.480;2023-07-29T04:18:12;19.88;;;3.38;;
37379;SDS011;23252;-33.992;18.480;2023-07-29T04:20:39;25.05;;;2.65;;
37379;SDS011;23252;-33.992;18.480;2023-07-29T04:23:05;23.57;;;2.77;;
37379;SDS011;23252;-33.992;18.480;2023-07-29T04:25:32;18.95;;;2.88;;
37379;SDS011;23252;-33.992;18.480;2023-07-29T04:27:58;20.70;;;3.00;;
37379;SDS011;23252;-33.992;18.480;2023-07-29T04:30:25;27.98;;;3.65;;
37379;SDS011;23252;-33.992;18.480;2023-07-29T04:32:51;30.15;;;3.42;;
37379;SDS011;23252;-33.992;18.480;2023-07-29T04:35:18;24.73;;;3.30;;
37379;SDS011;23252;-33.992;18.480;2023-07-29T04:37:44;24.17;;;3.50;;
37379;SDS011;23252;-33.992;18.480;2023-07-29T04:40:13;23.67;;;3.50;;
37379;SDS011;23252;-33.992;18.480;2023-07-29T04:42:40;30.38;;;3.28;;
37379;SDS011;23252;-33.992;18.480;2023-07-29T04:45:06;19.52;;;3.92;;
37379;SDS011;23252;-33.992;18.480;2023-07-29T04:47:33;22.00;;;3.57;;
37379;SDS011;23252;-33.992;18.480;2023-07-29T04:49:59;22.48;;;2.90;;
37379;SDS011;23252;-33.992;18.480;2023-07-29T04:52:26;16.00;;;3.13;;
37379;SDS011;23252;-33.992;18.480;2023-07-29T04:54:52;23.63;;;3.13;;
37379;SDS011;23252;-33.992;18.480;2023-07-29T04:57:19;20.30;;;3.50;;
37379;SDS011;23252;-33.992;18.480;2023-07-29T04:59:45;23.83;;;4.43;;
37379;SDS011;23252;-33.992;18.480;2023-07-29T05:02:11;25.73;;;4.10;;
37379;SDS011;23252;-33.992;18.480;2023-07-29T05:04:38;23.20;;;3.72;;
37379;SDS011;23252;-33.992;18.480;2023-07-29T05:07:08;13.25;;;2.30;;
37379;SDS011;23252;-33.992;18.480;2023-07-29T05:09:34;28.65;;;4.18;;
37379;SDS011;23252;-33.992;18.480;2023-07-29T05:12:00;20.55;;;2.28;;
37379;SDS011;23252;-33.992;18.480;2023-07-29T05:14:27;20.03;;;2.87;;
37379;SDS011;23252;-33.992;18.480;2023-07-29T05:16:53;23.98;;;3.95;;
37379;SDS011;23252;-33.992;18.480;2023-07-29T05:19:20;21.10;;;3.05;;
37379;SDS011;23252;-33.992;18.480;2023-07-29T05:21:46;22.37;;;3.67;;
37379;SDS011;23252;-33.992;18.480;2023-07-29T05:24:13;27.27;;;3.10;;
37379;SDS011;23252;-33.992;18.480;2023-07-29T05:26:39;20.70;;;3.38;;
37379;SDS011;23252;-33.992;18.480;2023-07-29T05:29:06;22.55;;;3.15;;
37379;SDS011;23252;-33.992;18.480;2023-07-29T05:31:32;26.35;;;3.10;;
37379;SDS011;23252;-33.992;18.480;2023-07-29T05:34:01;27.02;;;3.97;;
37379;SDS011;23252;-33.992;18.480;2023-07-29T05:36:28;17.13;;;2.88;;
37379;SDS011;23252;-33.992;18.480;2023-07-29T05:38:55;24.67;;;4.73;;
37379;SDS011;23252;-33.992;18.480;2023-07-29T05:41:21;15.40;;;2.22;;
37379;SDS011;23252;-33.992;18.480;2023-07-29T05:43:48;20.17;;;3.30;;
37379;SDS011;23252;-33.992;18.480;2023-07-29T05:46:14;21.90;;;3.70;;
37379;SDS011;23252;-33.992;18.480;2023-07-29T05:48:41;17.30;;;2.77;;
37379;SDS011;23252;-33.992;18.480;2023-07-29T05:51:07;29.35;;;3.20;;
37379;SDS011;23252;-33.992;18.480;2023-07-29T05:53:34;21.57;;;3.37;;
37379;SDS011;23252;-33.992;18.480;2023-07-29T05:56:00;18.92;;;3.33;;
37379;SDS011;23252;-33.992;18.480;2023-07-29T05:58:27;23.97;;;3.93;;
37379;SDS011;23252;-33.992;18.480;2023-07-29T06:00:56;17.20;;;2.58;;
37379;SDS011;23252;-33.992;18.480;2023-07-29T06:05:49;14.05;;;2.03;;
37379;SDS011;23252;-33.992;18.480;2023-07-29T06:08:16;17.10;;;2.58;;
37379;SDS011;23252;-33.992;18.480;2023-07-29T06:10:42;16.50;;;2.45;;
37379;SDS011;23252;-33.992;18.480;2023-07-29T06:13:09;17.77;;;3.13;;
37379;SDS011;23252;-33.992;18.480;2023-07-29T06:15:35;14.75;;;2.20;;
37379;SDS011;23252;-33.992;18.480;2023-07-29T06:18:02;17.50;;;3.03;;
37379;SDS011;23252;-33.992;18.480;2023-07-29T06:20:28;17.13;;;2.30;;
37379;SDS011;23252;-33.992;18.480;2023-07-29T06:22:55;20.00;;;3.03;;
37379;SDS011;23252;-33.992;18.480;2023-07-29T06:25:21;18.67;;;2.90;;
37379;SDS011;23252;-33.992;18.480;2023-07-29T06:27:48;21.13;;;3.78;;
37379;SDS011;23252;-33.992;18.480;2023-07-29T06:30:14;22.13;;;3.58;;
37379;SDS011;23252;-33.992;18.480;2023-07-29T06:32:41;24.58;;;3.15;;
37379;SDS011;23252;-33.992;18.480;2023-07-29T06:35:07;29.23;;;3.33;;
37379;SDS011;23252;-33.992;18.480;2023-07-29T06:37:34;20.17;;;2.97;;
37379;SDS011;23252;-33.992;18.480;2023-07-29T06:40:00;22.73;;;3.15;;
37379;SDS011;23252;-33.992;18.480;2023-07-29T06:42:27;28.37;;;4.37;;
37379;SDS011;23252;-33.992;18.480;2023-07-29T06:44:53;15.63;;;2.67;;
37379;SDS011;23252;-33.992;18.480;2023-07-29T06:47:20;12.80;;;2.33;;
37379;SDS011;23252;-33.992;18.480;2023-07-29T06:49:46;11.32;;;2.05;;
37379;SDS011;23252;-33.992;18.480;2023-07-29T06:52:13;12.43;;;2.55;;
37379;SDS011;23252;-33.992;18.480;2023-07-29T06:54:39;12.02;;;1.67;;
37379;SDS011;23252;-33.992;18.480;2023-07-29T06:57:06;14.82;;;2.45;;
37379;SDS011;23252;-33.992;18.480;2023-07-29T06:59:33;15.55;;;2.45;;
37379;SDS011;23252;-33.992;18.480;2023-07-29T07:01:59;16.67;;;2.45;;
37379;SDS011;23252;-33.992;18.480;2023-07-29T07:04:27;18.17;;;2.53;;
37379;SDS011;23252;-33.992;18.480;2023-07-29T07:06:53;19.15;;;2.75;;
37379;SDS011;23252;-33.992;18.480;2023-07-29T07:09:20;19.27;;;3.20;;
37379;SDS011;23252;-33.992;18.480;2023-07-29T07:11:46;17.55;;;2.80;;
37379;SDS011;23252;-33.992;18.480;2023-07-29T07:14:13;16.02;;;2.75;;
37379;SDS011;23252;-33.992;18.480;2023-07-29T07:16:39;18.13;;;3.00;;
37379;SDS011;23252;-33.992;18.480;2023-07-29T07:19:06;17.00;;;2.17;;
37379;SDS011;23252;-33.992;18.480;2023-07-29T07:21:32;14.85;;;2.20;;
37379;SDS011;23252;-33.992;18.480;2023-07-29T07:23:59;10.97;;;2.07;;
37379;SDS011;23252;-33.992;18.480;2023-07-29T07:26:25;10.60;;;2.00;;
37379;SDS011;23252;-33.992;18.480;2023-07-29T07:28:52;8.37;;;2.07;;
37379;SDS011;23252;-33.992;18.480;2023-07-29T07:31:18;16.00;;;1.88;;
37379;SDS011;23252;-33.992;18.480;2023-07-29T07:33:45;7.83;;;1.90;;
37379;SDS011;23252;-33.992;18.480;2023-07-29T07:36:11;17.80;;;3.30;;
37379;SDS011;23252;-33.992;18.480;2023-07-29T07:38:38;14.93;;;3.47;;
37379;SDS011;23252;-33.992;18.480;2023-07-29T07:41:04;14.60;;;2.80;;
37379;SDS011;23252;-33.992;18.480;2023-07-29T07:43:30;22.88;;;3.38;;
37379;SDS011;23252;-33.992;18.480;2023-07-29T07:45:57;18.37;;;3.00;;
37379;SDS011;23252;-33.992;18.480;2023-07-29T07:48:25;19.38;;;3.80;;
37379;SDS011;23252;-33.992;18.480;2023-07-29T07:53:18;22.20;;;2.58;;
37379;SDS011;23252;-33.992;18.480;2023-07-29T07:55:45;15.53;;;3.23;;
37379;SDS011;23252;-33.992;18.480;2023-07-29T07:58:12;23.77;;;3.45;;
37379;SDS011;23252;-33.992;18.480;2023-07-29T08:00:38;25.87;;;4.33;;
37379;SDS011;23252;-33.992;18.480;2023-07-29T08:03:08;18.23;;;2.92;;
37379;SDS011;23252;-33.992;18.480;2023-07-29T08:05:34;25.27;;;3.38;;
37379;SDS011;23252;-33.992;18.480;2023-07-29T08:08:01;19.30;;;3.08;;
37379;SDS011;23252;-33.992;18.480;2023-07-29T08:10:28;17.25;;;3.20;;
37379;SDS011;23252;-33.992;18.480;2023-07-29T08:12:54;17.15;;;3.08;;
37379;SDS011;23252;-33.992;18.480;2023-07-29T08:15:23;19.17;;;3.75;;
37379;SDS011;23252;-33.992;18.480;2023-07-29T08:17:49;17.48;;;2.88;;
37379;SDS011;23252;-33.992;18.480;2023-07-29T08:20:16;16.67;;;2.95;;
37379;SDS011;23252;-33.992;18.480;2023-07-29T08:22:42;11.10;;;3.13;;
37379;SDS011;23252;-33.992;18.480;2023-07-29T08:25:09;16.73;;;2.42;;
37379;SDS011;23252;-33.992;18.480;2023-07-29T08:27:36;22.23;;;2.97;;
37379;SDS011;23252;-33.992;18.480;2023-07-29T08:30:02;15.55;;;2.55;;
37379;SDS011;23252;-33.992;18.480;2023-07-29T08:32:29;15.80;;;2.70;;
37379;SDS011;23252;-33.992;18.480;2023-07-29T08:34:55;12.20;;;2.20;;
37379;SDS011;23252;-33.992;18.480;2023-07-29T08:37:22;13.60;;;2.53;;
37379;SDS011;23252;-33.992;18.480;2023-07-29T08:39:48;14.52;;;2.15;;
37379;SDS011;23252;-33.992;18.480;2023-07-29T08:42:15;14.63;;;2.30;;
37379;SDS011;23252;-33.992;18.480;2023-07-29T08:44:45;15.20;;;2.33;;
37379;SDS011;23252;-33.992;18.480;2023-07-29T08:47:15;13.95;;;2.65;;
37379;SDS011;23252;-33.992;18.480;2023-07-29T08:49:42;15.75;;;2.65;;
37379;SDS011;23252;-33.992;18.480;2023-07-29T08:52:11;8.93;;;1.90;;
37379;SDS011;23252;-33.992;18.480;2023-07-29T08:54:39;18.08;;;2.10;;
37379;SDS011;23252;-33.992;18.480;2023-07-29T08:57:06;15.88;;;2.42;;
37379;SDS011;23252;-33.992;18.480;2023-07-29T08:59:32;10.68;;;2.30;;
37379;SDS011;23252;-33.992;18.480;2023-07-29T09:01:59;11.30;;;2.50;;
37379;SDS011;23252;-33.992;18.480;2023-07-29T09:04:25;13.50;;;2.00;;
37379;SDS011;23252;-33.992;18.480;2023-07-29T09:06:54;10.80;;;2.35;;
37379;SDS011;23252;-33.992;18.480;2023-07-29T09:09:22;12.43;;;2.17;;
37379;SDS011;23252;-33.992;18.480;2023-07-29T09:11:49;9.10;;;2.30;;
37379;SDS011;23252;-33.992;18.480;2023-07-29T09:14:16;11.88;;;1.85;;
37379;SDS011;23252;-33.992;18.480;2023-07-29T09:16:43;9.00;;;1.55;;
37379;SDS011;23252;-33.992;18.480;2023-07-29T09:19:10;14.10;;;2.47;;
37379;SDS011;23252;-33.992;18.480;2023-07-29T09:21:38;12.43;;;2.40;;
37379;SDS011;23252;-33.992;18.480;2023-07-29T09:24:05;13.35;;;2.58;;
37379;SDS011;23252;-33.992;18.480;2023-07-29T09:26:33;14.02;;;2.20;;
37379;SDS011;23252;-33.992;18.480;2023-07-29T09:29:00;17.88;;;2.47;;
37379;SDS011;23252;-33.992;18.480;2023-07-29T09:31:27;10.75;;;2.03;;
37379;SDS011;23252;-33.992;18.480;2023-07-29T09:36:24;12.68;;;2.65;;
37379;SDS011;23252;-33.992;18.480;2023-07-29T09:38:52;14.15;;;2.40;;
37379;SDS011;23252;-33.992;18.480;2023-07-29T09:41:21;10.52;;;2.47;;
37379;SDS011;23252;-33.992;18.480;2023-07-29T09:43:58;13.35;;;2.70;;
37379;SDS011;23252;-33.992;18.480;2023-07-29T09:46:36;16.23;;;2.92;;
37379;SDS011;23252;-33.992;18.480;2023-07-29T09:49:03;14.35;;;2.60;;
37379;SDS011;23252;-33.992;18.480;2023-07-29T09:51:31;13.07;;;2.47;;
37379;SDS011;23252;-33.992;18.480;2023-07-29T09:54:03;18.05;;;3.42;;
37379;SDS011;23252;-33.992;18.480;2023-07-29T09:56:30;13.70;;;3.03;;
37379;SDS011;23252;-33.992;18.480;2023-07-29T09:58:56;16.40;;;2.72;;
37379;SDS011;23252;-33.992;18.480;2023-07-29T10:01:23;16.35;;;2.22;;
37379;SDS011;23252;-33.992;18.480;2023-07-29T10:03:50;15.15;;;2.20;;
37379;SDS011;23252;-33.992;18.480;2023-07-29T10:06:17;16.98;;;2.50;;
37379;SDS011;23252;-33.992;18.480;2023-07-29T10:08:44;12.73;;;2.28;;
37379;SDS011;23252;-33.992;18.480;2023-07-29T10:11:13;11.02;;;2.30;;
37379;SDS011;23252;-33.992;18.480;2023-07-29T10:13:39;14.40;;;2.33;;
37379;SDS011;23252;-33.992;18.480;2023-07-29T10:16:06;17.85;;;2.83;;
37379;SDS011;23252;-33.992;18.480;2023-07-29T10:18:33;16.90;;;2.73;;
37379;SDS011;23252;-33.992;18.480;2023-07-29T10:21:00;13.43;;;2.22;;
37379;SDS011;23252;-33.992;18.480;2023-07-29T10:25:57;15.68;;;2.75;;
37379;SDS011;23252;-33.992;18.480;2023-07-29T10:28:30;12.05;;;2.60;;
37379;SDS011;23252;-33.992;18.480;2023-07-29T10:30:58;16.17;;;3.15;;
37379;SDS011;23252;-33.992;18.480;2023-07-29T10:33:25;11.95;;;2.30;;
37379;SDS011;23252;-33.992;18.480;2023-07-29T10:35:52;15.63;;;3.45;;
37379;SDS011;23252;-33.992;18.480;2023-07-29T10:38:23;17.92;;;3.60;;
37379;SDS011;23252;-33.992;18.480;2023-07-29T10:40:51;21.00;;;3.45;;
37379;SDS011;23252;-33.992;18.480;2023-07-29T10:43:26;16.70;;;3.50;;
37379;SDS011;23252;-33.992;18.480;2023-07-29T10:45:55;23.95;;;4.28;;
37379;SDS011;23252;-33.992;18.480;2023-07-29T10:54:04;25.05;;;4.25;;
37379;SDS011;23252;-33.992;18.480;2023-07-29T10:56:36;28.70;;;4.72;;
37379;SDS011;23252;-33.992;18.480;2023-07-29T11:01:41;24.58;;;3.80;;
37379;SDS011;23252;-33.992;18.480;2023-07-29T11:17:36;21.80;;;4.95;;
37379;SDS011;23252;-33.992;18.480;2023-07-29T11:20:05;12.25;;;2.40;;
37379;SDS011;23252;-33.992;18.480;2023-07-29T11:22:33;20.08;;;3.90;;
37379;SDS011;23252;-33.992;18.480;2023-07-29T11:25:00;22.80;;;3.10;;
37379;SDS011;23252;-33.992;18.480;2023-07-29T11:27:26;16.38;;;3.25;;
37379;SDS011;23252;-33.992;18.480;2023-07-29T11:30:00;20.63;;;3.60;;
37379;SDS011;23252;-33.992;18.480;2023-07-29T11:32:28;30.38;;;4.03;;
37379;SDS011;23252;-33.992;18.480;2023-07-29T11:34:54;17.83;;;3.47;;
37379;SDS011;23252;-33.992;18.480;2023-07-29T11:37:21;19.92;;;4.72;;
37379;SDS011;23252;-33.992;18.480;2023-07-29T11:39:47;19.77;;;3.53;;
37379;SDS011;23252;-33.992;18.480;2023-07-29T11:42:14;16.40;;;2.65;;
37379;SDS011;23252;-33.992;18.480;2023-07-29T11:44:41;17.65;;;3.70;;
37379;SDS011;23252;-33.992;18.480;2023-07-29T11:47:09;19.75;;;3.20;;
37379;SDS011;23252;-33.992;18.480;2023-07-29T11:49:37;17.48;;;2.97;;
37379;SDS011;23252;-33.992;18.480;2023-07-29T11:52:08;20.50;;;3.67;;
37379;SDS011;23252;-33.992;18.480;2023-07-29T11:54:36;24.63;;;4.18;;
37379;SDS011;23252;-33.992;18.480;2023-07-29T11:59:33;16.02;;;3.60;;
37379;SDS011;23252;-33.992;18.480;2023-07-29T12:02:00;23.42;;;3.97;;
37379;SDS011;23252;-33.992;18.480;2023-07-29T12:04:28;23.15;;;4.35;;
37379;SDS011;23252;-33.992;18.480;2023-07-29T14:16:08;12.65;;;3.20;;
37379;SDS011;23252;-33.992;18.480;2023-07-29T14:21:01;8.88;;;2.17;;
37379;SDS011;23252;-33.992;18.480;2023-07-29T14:23:27;11.17;;;1.80;;
37379;SDS011;23252;-33.992;18.480;2023-07-29T14:25:55;9.20;;;2.00;;
37379;SDS011;23252;-33.992;18.480;2023-07-29T14:28:22;9.18;;;1.48;;
37379;SDS011;23252;-33.992;18.480;2023-07-29T14:30:48;4.35;;;1.60;;
37379;SDS011;23252;-33.992;18.480;2023-07-29T14:33:15;9.07;;;2.47;;
37379;SDS011;23252;-33.992;18.480;2023-07-29T14:35:41;7.25;;;2.45;;
37379;SDS011;23252;-33.992;18.480;2023-07-29T14:38:07;9.63;;;2.65;;
37379;SDS011;23252;-33.992;18.480;2023-07-29T14:40:34;11.05;;;3.85;;
37379;SDS011;23252;-33.992;18.480;2023-07-29T14:43:00;10.68;;;3.92;;
37379;SDS011;23252;-33.992;18.480;2023-07-29T14:45:27;12.93;;;3.13;;
37379;SDS011;23252;-33.992;18.480;2023-07-29T14:47:53;10.77;;;2.97;;
37379;SDS011;23252;-33.992;18.480;2023-07-29T14:50:20;14.30;;;3.08;;
37379;SDS011;23252;-33.992;18.480;2023-07-29T14:52:46;15.18;;;3.13;;
37379;SDS011;23252;-33.992;18.480;2023-07-29T14:55:13;12.50;;;3.70;;
37379;SDS011;23252;-33.992;18.480;2023-07-29T14:57:39;18.40;;;4.53;;
37379;SDS011;23252;-33.992;18.480;2023-07-29T15:00:06;18.58;;;5.45;;
37379;SDS011;23252;-33.992;18.480;2023-07-29T15:02:33;18.60;;;4.53;;
37379;SDS011;23252;-33.992;18.480;2023-07-29T15:05:00;16.63;;;4.30;;
37379;SDS011;23252;-33.992;18.480;2023-07-29T15:07:26;22.63;;;5.57;;
37379;SDS011;23252;-33.992;18.480;2023-07-29T15:09:53;25.13;;;5.05;;
37379;SDS011;23252;-33.992;18.480;2023-07-29T15:12:19;19.40;;;4.70;;
37379;SDS011;23252;-33.992;18.480;2023-07-29T15:14:46;21.83;;;4.10;;
37379;SDS011;23252;-33.992;18.480;2023-07-29T15:17:13;17.92;;;5.47;;
37379;SDS011;23252;-33.992;18.480;2023-07-29T15:19:39;30.13;;;6.90;;
37379;SDS011;23252;-33.992;18.480;2023-07-29T15:22:06;26.15;;;8.45;;
37379;SDS011;23252;-33.992;18.480;2023-07-29T15:24:32;31.13;;;7.97;;
37379;SDS011;23252;-33.992;18.480;2023-07-29T15:26:59;21.93;;;5.37;;
37379;SDS011;23252;-33.992;18.480;2023-07-29T15:29:25;12.93;;;4.47;;
37379;SDS011;23252;-33.992;18.480;2023-07-29T15:31:52;15.00;;;3.70;;
37379;SDS011;23252;-33.992;18.480;2023-07-29T15:34:18;21.88;;;4.85;;
37379;SDS011;23252;-33.992;18.480;2023-07-29T15:36:45;10.80;;;1.93;;
37379;SDS011;23252;-33.992;18.480;2023-07-29T15:39:11;11.80;;;2.65;;
37379;SDS011;23252;-33.992;18.480;2023-07-29T15:41:38;11.50;;;2.38;;
37379;SDS011;23252;-33.992;18.480;2023-07-29T15:44:04;10.20;;;2.75;;
37379;SDS011;23252;-33.992;18.480;2023-07-29T15:46:31;12.07;;;2.63;;
37379;SDS011;23252;-33.992;18.480;2023-07-29T15:48:57;9.73;;;1.70;;
37379;SDS011;23252;-33.992;18.480;2023-07-29T15:51:27;12.48;;;2.65;;
37379;SDS011;23252;-33.992;18.480;2023-07-29T15:53:53;14.00;;;2.90;;
37379;SDS011;23252;-33.992;18.480;2023-07-29T15:56:20;9.48;;;2.72;;
37379;SDS011;23252;-33.992;18.480;2023-07-29T15:58:46;12.82;;;3.00;;
37379;SDS011;23252;-33.992;18.480;2023-07-29T16:01:13;9.23;;;2.15;;
37379;SDS011;23252;-33.992;18.480;2023-07-29T16:03:39;8.73;;;2.38;;
37379;SDS011;23252;-33.992;18.480;2023-07-29T16:06:06;14.85;;;2.50;;
37379;SDS011;23252;-33.992;18.480;2023-07-29T16:08:33;9.70;;;2.33;;
37379;SDS011;23252;-33.992;18.480;2023-07-29T16:10:59;14.60;;;3.45;;
37379;SDS011;23252;-33.992;18.480;2023-07-29T16:13:26;23.10;;;5.22;;
37379;SDS011;23252;-33.992;18.480;2023-07-29T16:15:52;26.40;;;5.20;;
37379;SDS011;23252;-33.992;18.480;2023-07-29T16:18:19;17.98;;;5.85;;
37379;SDS011;23252;-33.992;18.480;2023-07-29T16:20:45;16.87;;;5.33;;
37379;SDS011;23252;-33.992;18.480;2023-07-29T16:23:14;17.17;;;5.63;;
37379;SDS011;23252;-33.992;18.480;2023-07-29T16:25:41;19.07;;;6.63;;
37379;SDS011;23252;-33.992;18.480;2023-07-29T16:28:10;22.25;;;7.57;;
37379;SDS011;23252;-33.992;18.480;2023-07-29T16:30:38;25.02;;;7.53;;
37379;SDS011;23252;-33.992;18.480;2023-07-29T16:33:09;18.65;;;6.60;;
37379;SDS011;23252;-33.992;18.480;2023-07-29T16:35:39;20.48;;;7.57;;
37379;SDS011;23252;-33.992;18.480;2023-07-29T16:38:08;22.15;;;7.55;;
37379;SDS011;23252;-33.992;18.480;2023-07-29T16:40:35;29.92;;;8.82;;
37379;SDS011;23252;-33.992;18.480;2023-07-29T16:43:04;20.77;;;8.07;;
37379;SDS011;23252;-33.992;18.480;2023-07-29T16:45:30;23.20;;;6.68;;
37379;SDS011;23252;-33.992;18.480;2023-07-29T16:48:00;25.10;;;6.40;;
37379;SDS011;23252;-33.992;18.480;2023-07-29T16:50:29;20.65;;;5.90;;
37379;SDS011;23252;-33.992;18.480;2023-07-29T16:52:56;24.63;;;5.90;;
37379;SDS011;23252;-33.992;18.480;2023-07-29T16:55:24;22.88;;;6.50;;
37379;SDS011;23252;-33.992;18.480;2023-07-29T16:57:50;22.77;;;6.65;;
37379;SDS011;23252;-33.992;18.480;2023-07-29T17:00:23;29.20;;;8.02;;
37379;SDS011;23252;-33.992;18.480;2023-07-29T17:02:49;24.95;;;6.60;;
37379;SDS011;23252;-33.992;18.480;2023-07-29T17:05:16;27.85;;;6.78;;
37379;SDS011;23252;-33.992;18.480;2023-07-29T17:07:48;20.38;;;6.78;;